createdAt,value
2022-08-22T00:02:33.637Z,99272.16
2022-08-22T00:02:55.558Z,99287.34
2022-08-22T00:03:15.561Z,99297.69
2022-08-22T00:05:48.515Z,99284.03
2022-08-22T00:09:18.200Z,99283.34
2022-08-22T00:12:50.634Z,99287.19
2022-08-22T00:16:06.600Z,99286.56
2022-08-22T00:19:28.813Z,99286.66
2022-08-22T00:22:51.268Z,99295.75
2022-08-22T00:26:16.351Z,99289.47
2022-08-22T00:29:30.495Z,99289.25
2022-08-22T00:33:02.521Z,99294.03
2022-08-22T00:36:35.676Z,99287.97
2022-08-22T00:40:03.718Z,99277.34
2022-08-22T00:43:43.941Z,99285.81
2022-08-22T00:46:59.832Z,99287.53
2022-08-22T00:50:07.911Z,99283.06
2022-08-22T00:53:39.003Z,99288.44
2022-08-22T00:56:47.733Z,99279.53
2022-08-22T01:00:05.765Z,99287.09
2022-08-22T01:03:32.946Z,99286.50
2022-08-22T01:06:44.648Z,99286.53
2022-08-22T01:10:24.011Z,99289.84
2022-08-22T01:13:38.650Z,99285.37
2022-08-22T01:17:23.267Z,99281.81
2022-08-22T01:20:41.689Z,99282.53
2022-08-22T01:24:27.325Z,99282.44
2022-08-22T01:27:48.788Z,99287.41
2022-08-22T01:31:03.199Z,99283.50
2022-08-22T01:34:54.307Z,99286.22
2022-08-22T01:38:00.541Z,99287.88
2022-08-22T01:41:12.934Z,99287.88
2022-08-22T01:44:24.483Z,99284.41
2022-08-22T01:47:50.137Z,99282.38
2022-08-22T01:51:04.770Z,99288.47
2022-08-22T01:54:27.534Z,99288.88
2022-08-22T01:57:30.207Z,99284.69
2022-08-22T02:01:01.887Z,99292.34
2022-08-22T02:04:30.136Z,99292.41
2022-08-22T02:08:02.952Z,99287.03
2022-08-22T02:11:10.705Z,99282.00
2022-08-22T02:14:33.548Z,99286.56
2022-08-22T02:17:51.059Z,99289.75
2022-08-22T02:21:11.609Z,99287.81
2022-08-22T02:24:42.737Z,99281.56
2022-08-22T02:28:10.909Z,99279.66
2022-08-22T02:31:18.727Z,99272.16
2022-08-22T02:34:36.854Z,99266.41
2022-08-22T02:38:09.357Z,99269.87
2022-08-22T02:41:46.854Z,99273.03
2022-08-22T02:45:03.504Z,99269.72
2022-08-22T02:48:12.144Z,99263.38
2022-08-22T02:51:47.831Z,99263.53
2022-08-22T02:55:05.883Z,99275.03
2022-08-22T02:58:18.813Z,99267.81
2022-08-22T03:01:30.419Z,99268.91
2022-08-22T03:04:33.452Z,99279.22
2022-08-22T03:07:46.431Z,99273.78
2022-08-22T03:11:10.759Z,99272.62
2022-08-22T03:14:32.476Z,99276.91
2022-08-22T03:17:50.864Z,99284.16
2022-08-22T03:21:09.446Z,99282.84
2022-08-22T03:24:24.956Z,99277.09
2022-08-22T03:27:46.208Z,99286.06
2022-08-22T03:30:58.237Z,99283.31
2022-08-22T03:34:27.179Z,99283.69
2022-08-22T03:37:36.063Z,99286.38
2022-08-22T03:41:06.132Z,99291.09
2022-08-22T03:44:34.512Z,99291.16
2022-08-22T03:48:07.726Z,99290.59
2022-08-22T03:51:38.482Z,99297.47
2022-08-22T03:55:12.625Z,99294.75
2022-08-22T03:58:35.353Z,99288.50
2022-08-22T04:01:56.705Z,99296.53
2022-08-22T04:05:23.709Z,99295.62
2022-08-22T04:08:43.773Z,99296.00
2022-08-22T04:12:25.909Z,99294.16
2022-08-22T04:15:40.456Z,99293.00
2022-08-22T04:19:21.028Z,99299.00
2022-08-22T04:22:42.231Z,99299.81
2022-08-22T04:25:58.666Z,99304.81
2022-08-22T04:29:08.328Z,99305.25
2022-08-22T04:32:43.989Z,99310.06
2022-08-22T04:35:59.902Z,99314.53
2022-08-22T04:39:14.683Z,99312.31
2022-08-22T04:42:47.966Z,99318.41
2022-08-22T04:46:08.236Z,99315.31
2022-08-22T04:49:38.473Z,99318.59
2022-08-22T04:52:55.073Z,99319.69
2022-08-22T04:56:15.250Z,99319.31
2022-08-22T04:59:19.381Z,99325.13
2022-08-22T05:02:27.693Z,99319.84
2022-08-22T05:05:38.091Z,99319.41
2022-08-22T05:08:43.272Z,99321.50
2022-08-22T05:12:37.775Z,99326.47
2022-08-22T05:15:46.005Z,99330.50
2022-08-22T05:19:06.495Z,99324.75
2022-08-22T05:22:18.820Z,99340.03
2022-08-22T05:25:28.890Z,99333.25
2022-08-22T05:28:39.153Z,99339.13
2022-08-22T05:31:49.385Z,99340.84
2022-08-22T05:34:58.341Z,99341.19
2022-08-22T05:38:03.906Z,99344.38
2022-08-22T05:41:37.508Z,99346.47
2022-08-22T05:44:40.736Z,99356.88
2022-08-22T05:47:48.536Z,99354.03
2022-08-22T05:51:21.578Z,99363.91
2022-08-22T05:54:33.875Z,99369.94
2022-08-22T05:57:46.512Z,99365.16
2022-08-22T06:00:57.896Z,99374.97
2022-08-22T06:04:07.054Z,99371.44
2022-08-22T06:07:43.567Z,99367.31
2022-08-22T06:10:51.422Z,99373.53
2022-08-22T06:14:31.581Z,99381.22
2022-08-22T06:17:41.773Z,99385.13
2022-08-22T06:20:52.570Z,99375.22
2022-08-22T06:24:05.198Z,99387.00
2022-08-22T06:27:13.088Z,99383.09
2022-08-22T06:30:40.289Z,99383.63
2022-08-22T06:34:18.335Z,99379.75
2022-08-22T06:37:34.276Z,99371.84
2022-08-22T06:40:57.236Z,99381.59
2022-08-22T06:44:25.742Z,99384.56
2022-08-22T06:47:57.122Z,99391.78
2022-08-22T06:51:09.204Z,99388.44
2022-08-22T06:54:22.230Z,99382.41
2022-08-22T06:57:44.013Z,99387.81
2022-08-22T07:00:58.817Z,99386.53
2022-08-22T07:04:15.969Z,99383.44
2022-08-22T07:07:25.467Z,99376.84
2022-08-22T07:10:28.712Z,99396.31
2022-08-22T07:13:33.799Z,99395.88
2022-08-22T07:16:42.471Z,99397.13
2022-08-22T07:19:55.535Z,99400.63
2022-08-22T07:23:04.391Z,99393.16
2022-08-22T07:26:20.776Z,99403.66
2022-08-22T07:29:35.941Z,99392.50
2022-08-22T07:33:18.995Z,99404.50
2022-08-22T07:36:58.768Z,99401.66
2022-08-22T07:40:25.002Z,99409.47
2022-08-22T07:43:48.550Z,99405.19
2022-08-22T07:47:17.978Z,99407.47
2022-08-22T07:50:31.338Z,99407.88
2022-08-22T07:53:48.636Z,99411.81
2022-08-22T07:57:24.888Z,99409.53
2022-08-22T08:00:29.770Z,99412.16
2022-08-22T08:03:33.170Z,99413.84
2022-08-22T08:06:38.384Z,99413.22
2022-08-22T08:10:13.361Z,99414.09
2022-08-22T08:13:53.591Z,99412.13
2022-08-22T08:17:28.774Z,99413.81
2022-08-22T08:21:03.650Z,99417.62
2022-08-22T08:24:13.769Z,99415.91
2022-08-22T08:27:58.329Z,99422.50
2022-08-22T08:31:10.301Z,99418.06
2022-08-22T08:34:21.243Z,99417.47
2022-08-22T08:37:36.174Z,99418.12
2022-08-22T08:40:48.837Z,99424.03
2022-08-22T08:44:15.030Z,99418.00
2022-08-22T08:47:40.279Z,99418.12
2022-08-22T08:50:54.202Z,99417.97
2022-08-22T08:54:21.911Z,99414.97
2022-08-22T09:01:40.003Z,99423.06
2022-08-22T09:04:49.066Z,99415.56
2022-08-22T09:08:13.167Z,99413.59
2022-08-22T09:11:37.412Z,99414.66
2022-08-22T09:15:04.305Z,99412.88
2022-08-22T09:19:02.017Z,99415.19
2022-08-22T09:22:22.191Z,99414.72
2022-08-22T09:29:01.756Z,99424.22
2022-08-22T09:32:42.573Z,99421.66
2022-08-22T09:35:59.183Z,99421.06
2022-08-22T09:39:22.712Z,99416.41
2022-08-22T09:40:16.149Z,99412.81
2022-08-22T09:42:53.461Z,99426.47
2022-08-22T09:46:13.281Z,99422.34
2022-08-22T09:49:51.691Z,99432.97
2022-08-22T09:57:54.101Z,99432.06
2022-08-22T10:01:04.113Z,99432.00
2022-08-22T10:04:07.237Z,99433.94
2022-08-22T10:07:31.426Z,99437.31
2022-08-22T10:11:06.681Z,99435.91
2022-08-22T10:14:24.445Z,99445.34
2022-08-22T10:17:41.017Z,99439.00
2022-08-22T10:21:19.535Z,99440.56
2022-08-22T10:24:52.859Z,99434.81
2022-08-22T10:28:23.876Z,99430.09
2022-08-22T10:31:59.091Z,99435.72
2022-08-22T10:35:47.918Z,99443.78
2022-08-22T10:38:55.540Z,99432.78
2022-08-22T10:42:18.664Z,99434.75
2022-08-22T10:45:39.006Z,99430.84
2022-08-22T10:49:31.048Z,99435.50
2022-08-22T10:52:46.438Z,99431.56
2022-08-22T10:55:56.013Z,99428.53
2022-08-22T10:59:24.203Z,99429.56
2022-08-22T11:02:36.301Z,99424.88
2022-08-22T11:05:50.057Z,99424.88
2022-08-22T11:08:58.153Z,99432.88
2022-08-22T11:12:13.638Z,99423.47
2022-08-22T11:15:42.101Z,99428.94
2022-08-22T11:18:51.443Z,99424.03
2022-08-22T11:22:36.612Z,99422.78
2022-08-22T11:26:07.444Z,99422.66
2022-08-22T11:29:22.904Z,99420.47
2022-08-22T11:32:59.539Z,99421.72
2022-08-22T11:36:21.741Z,99415.31
2022-08-22T11:39:41.010Z,99412.34
2022-08-22T11:43:20.050Z,99410.53
2022-08-22T11:46:40.113Z,99402.53
2022-08-22T11:49:56.744Z,99404.16
2022-08-22T11:53:18.341Z,99406.28
2022-08-22T11:56:35.370Z,99401.34
2022-08-22T11:59:42.999Z,99402.53
2022-08-22T12:03:16.459Z,99394.88
2022-08-22T12:06:29.257Z,99399.87
2022-08-22T12:10:16.845Z,99396.12
2022-08-22T12:13:46.038Z,99382.69
2022-08-22T12:17:13.612Z,99383.25
2022-08-22T12:20:35.217Z,99386.88
2022-08-22T12:24:20.996Z,99391.50
2022-08-22T12:27:28.427Z,99386.88
2022-08-22T12:31:11.373Z,99390.13
2022-08-22T12:34:39.755Z,99385.16
2022-08-22T12:38:03.066Z,99381.84
2022-08-22T12:41:38.471Z,99382.84
2022-08-22T12:45:15.625Z,99382.56
2022-08-22T12:48:30.478Z,99383.00
2022-08-22T12:51:51.959Z,99391.34
2022-08-22T12:55:14.710Z,99378.47
2022-08-22T12:58:55.569Z,99383.47
2022-08-22T13:02:16.807Z,99387.62
2022-08-22T13:05:41.022Z,99382.72
2022-08-22T13:08:49.095Z,99395.06
2022-08-22T13:11:54.540Z,99392.84
2022-08-22T13:15:29.263Z,99385.34
2022-08-22T13:18:44.764Z,99381.94
2022-08-22T13:22:04.931Z,99381.72
2022-08-22T13:25:25.625Z,99392.94
2022-08-22T13:28:31.823Z,99387.62
2022-08-22T13:31:38.634Z,99376.72
2022-08-22T13:34:58.348Z,99384.25
2022-08-22T13:38:17.861Z,99391.50
2022-08-22T13:41:34.434Z,99395.47
2022-08-22T13:44:44.684Z,99397.41
2022-08-22T13:47:52.420Z,99397.81
2022-08-22T13:51:06.279Z,99405.50
2022-08-22T13:54:22.728Z,99409.66
2022-08-22T13:57:52.073Z,99411.84
2022-08-22T14:01:17.875Z,99404.50
2022-08-22T14:04:35.617Z,99406.28
2022-08-22T14:08:06.260Z,99404.84
2022-08-22T14:11:43.089Z,99399.37
2022-08-22T14:14:54.475Z,99401.00
2022-08-22T14:18:45.536Z,99395.12
2022-08-22T14:22:01.877Z,99393.31
2022-08-22T14:25:16.864Z,99384.00
2022-08-22T14:28:33.555Z,99380.44
2022-08-22T14:31:36.515Z,99377.91
2022-08-22T14:34:45.379Z,99373.25
2022-08-22T14:37:58.200Z,99366.53
2022-08-22T14:41:06.997Z,99376.91
2022-08-22T14:44:31.738Z,99393.50
2022-08-22T14:52:29.920Z,99401.38
2022-08-22T15:05:05.581Z,99375.22
2022-08-22T15:08:12.888Z,99380.72
2022-08-22T15:11:25.952Z,99389.28
2022-08-22T15:14:35.223Z,99389.22
2022-08-22T15:17:40.575Z,99387.84
2022-08-22T15:21:06.749Z,99379.66
2022-08-22T15:24:13.889Z,99387.09
2022-08-22T15:27:20.318Z,99399.16
2022-08-22T15:30:34.658Z,99413.16
2022-08-22T15:33:43.247Z,99409.13
2022-08-22T15:37:29.343Z,99405.31
2022-08-22T15:40:45.619Z,99406.97
2022-08-22T15:43:52.097Z,99404.22
2022-08-22T15:47:23.959Z,99408.13
2022-08-22T15:50:37.175Z,99412.56
2022-08-22T15:53:43.375Z,99416.06
2022-08-22T15:56:52.830Z,99421.69
2022-08-22T16:00:12.305Z,99429.91
2022-08-22T16:03:31.668Z,99432.34
2022-08-22T16:07:01.404Z,99443.00
2022-08-22T16:10:14.170Z,99437.22
2022-08-22T16:23:07.717Z,99428.16
2022-08-22T16:26:15.751Z,99423.41
2022-08-22T16:30:05.398Z,99418.38
2022-08-22T16:33:17.971Z,99433.28
2022-08-22T16:36:42.292Z,99423.59
2022-08-22T16:40:14.478Z,99418.31
2022-08-22T16:43:19.999Z,99417.59
2022-08-22T16:46:36.515Z,99420.84
2022-08-22T16:56:23.287Z,99427.78
2022-08-22T16:59:58.350Z,99426.22
2022-08-22T17:03:40.798Z,99434.47
2022-08-22T17:07:07.600Z,99442.13
2022-08-22T17:11:25.074Z,99451.06
2022-08-22T17:14:48.540Z,99438.63
2022-08-22T17:18:17.403Z,99442.81
2022-08-22T17:21:53.604Z,99445.09
2022-08-22T17:25:23.913Z,99441.75
2022-08-22T17:28:38.809Z,99445.69
2022-08-22T17:32:09.667Z,99459.75
2022-08-22T17:35:33.126Z,99459.72
2022-08-22T17:38:55.087Z,99466.97
2022-08-22T17:42:38.196Z,99477.75
2022-08-22T17:45:47.203Z,99480.22
2022-08-22T17:48:59.587Z,99470.72
2022-08-22T17:52:28.238Z,99478.16
2022-08-22T17:55:39.441Z,99472.75
2022-08-22T17:58:55.792Z,99470.69
2022-08-22T18:02:11.096Z,99471.34
2022-08-22T18:05:20.072Z,99476.69
2022-08-22T19:52:16.174Z,99540.59
2022-08-22T19:55:36.824Z,99540.16
2022-08-22T19:58:39.461Z,99545.59
2022-08-22T20:02:05.956Z,99543.59
2022-08-22T20:05:27.752Z,99539.69
2022-08-22T20:08:43.245Z,99531.66
2022-08-22T20:16:23.658Z,99535.59
2022-08-22T20:23:25.124Z,99532.00
2022-08-22T20:26:31.236Z,99524.72
2022-08-22T20:29:37.273Z,99531.75
2022-08-22T20:32:53.950Z,99525.81
2022-08-22T20:36:02.244Z,99520.34
2022-08-22T20:39:37.263Z,99524.09
2022-08-22T20:42:44.322Z,99521.75
2022-08-22T20:46:04.356Z,99516.50
2022-08-22T20:49:24.051Z,99511.19
2022-08-22T20:55:57.160Z,99516.25
2022-08-22T20:59:52.134Z,99519.25
2022-08-22T21:03:36.965Z,99522.28
2022-08-22T21:07:30.780Z,99527.63
2022-08-22T21:11:00.883Z,99512.38
2022-08-22T21:14:33.146Z,99506.25
2022-08-22T21:17:39.695Z,99501.38
2022-08-22T21:20:44.668Z,99503.75
2022-08-22T21:24:09.591Z,99500.63
2022-08-22T21:27:14.429Z,99514.31
2022-08-22T21:30:28.351Z,99507.47
2022-08-22T21:33:31.275Z,99499.94
2022-08-22T21:36:38.648Z,99512.47
2022-08-22T21:39:50.223Z,99506.09
2022-08-22T21:43:05.598Z,99507.41
2022-08-22T21:46:08.730Z,99516.78
2022-08-22T21:49:25.104Z,99515.19
2022-08-22T21:52:31.155Z,99515.84
2022-08-22T21:55:47.013Z,99517.06
2022-08-22T21:58:49.976Z,99525.19
2022-08-22T22:01:56.031Z,99518.56
2022-08-22T22:05:01.295Z,99522.94
2022-08-22T22:08:05.652Z,99531.41
2022-08-22T22:11:15.447Z,99533.16
2022-08-22T22:14:20.209Z,99543.00
2022-08-22T22:17:43.732Z,99540.34
2022-08-22T22:20:47.560Z,99546.72
2022-08-22T22:23:50.734Z,99553.16
2022-08-22T22:26:55.347Z,99556.63
2022-08-22T22:29:58.607Z,99557.25
2022-08-22T22:33:01.551Z,99551.81
2022-08-22T22:36:20.976Z,99560.09
2022-08-22T22:39:25.360Z,99557.94
2022-08-22T22:42:28.497Z,99560.69
2022-08-22T22:45:31.255Z,99555.12
2022-08-22T22:48:34.989Z,99562.62
2022-08-22T22:51:37.859Z,99560.09
2022-08-22T22:54:40.932Z,99559.03
2022-08-22T22:57:44.121Z,99566.22
2022-08-22T23:00:49.210Z,99569.09
2022-08-22T23:03:57.548Z,99567.37
2022-08-22T23:07:03.610Z,99570.88
2022-08-22T23:10:08.291Z,99571.78
2022-08-22T23:13:11.479Z,99572.81
2022-08-22T23:16:18.168Z,99562.69
2022-08-22T23:19:41.494Z,99561.00
2022-08-22T23:22:49.410Z,99565.13
2022-08-22T23:25:55.161Z,99564.31
2022-08-22T23:28:58.343Z,99558.47
2022-08-22T23:32:03.402Z,99567.19
2022-08-22T23:35:06.889Z,99574.41
2022-08-22T23:38:09.870Z,99565.53
2022-08-22T23:41:14.634Z,99560.63
2022-08-22T23:44:20.401Z,99565.56
2022-08-22T23:47:23.218Z,99559.78
2022-08-22T23:50:26.215Z,99559.84
2022-08-22T23:53:49.773Z,99570.25
2022-08-22T23:56:59.691Z,99563.88
